createdAt,value
2018-06-21T00:01:20.197Z,3.60
2018-06-21T00:03:48.556Z,3.90
2018-06-21T00:06:17.041Z,4.10
2018-06-21T00:08:45.494Z,3.80
2018-06-21T00:11:13.939Z,4.30
2018-06-21T00:13:42.357Z,4.70
2018-06-21T00:16:10.821Z,3.80
2018-06-21T00:18:39.210Z,3.90
2018-06-21T00:21:07.580Z,3.93
2018-06-21T00:23:35.973Z,4.80
2018-06-21T00:26:04.657Z,4.00
2018-06-21T00:28:34.132Z,4.23
2018-06-21T00:31:02.514Z,4.17
2018-06-21T00:33:31.109Z,3.93
2018-06-21T00:35:59.507Z,4.47
2018-06-21T00:38:27.917Z,4.80
2018-06-21T00:40:56.340Z,4.13
2018-06-21T00:43:24.741Z,4.20
2018-06-21T00:45:53.079Z,3.90
2018-06-21T00:48:21.457Z,4.40
2018-06-21T00:50:49.925Z,3.90
2018-06-21T00:53:18.287Z,4.13
2018-06-21T00:55:57.860Z,3.90
2018-06-21T00:58:26.263Z,4.07
2018-06-21T01:00:54.672Z,4.07
2018-06-21T01:03:23.021Z,4.37
2018-06-21T01:05:51.428Z,4.20
2018-06-21T01:08:19.787Z,4.23
2018-06-21T01:10:48.195Z,3.83
2018-06-21T01:13:16.623Z,4.50
2018-06-21T01:15:45.000Z,4.17
2018-06-21T01:18:13.398Z,4.03
2018-06-21T01:20:41.772Z,3.77
2018-06-21T01:23:10.168Z,4.33
2018-06-21T01:25:38.539Z,4.00
2018-06-21T01:28:06.961Z,4.20
2018-06-21T01:30:35.497Z,3.97
2018-06-21T01:33:03.925Z,4.20
2018-06-21T01:35:32.539Z,4.10
2018-06-21T01:38:00.894Z,4.00
2018-06-21T01:40:29.268Z,4.13
2018-06-21T01:42:57.646Z,4.40
2018-06-21T01:45:26.023Z,4.00
2018-06-21T01:47:54.383Z,3.80
2018-06-21T01:50:22.751Z,4.67
2018-06-21T01:52:51.233Z,5.00
2018-06-21T01:55:19.633Z,3.83
2018-06-21T01:57:48.033Z,4.00
2018-06-21T02:00:16.428Z,4.40
2018-06-21T02:02:44.833Z,3.90
2018-06-21T02:05:13.790Z,4.13
2018-06-21T02:07:42.214Z,3.90
2018-06-21T02:10:10.617Z,4.03
2018-06-21T02:12:39.402Z,4.40
2018-06-21T02:15:07.935Z,4.70
2018-06-21T02:17:36.343Z,4.80
2018-06-21T02:20:04.777Z,4.73
2018-06-21T02:22:33.420Z,4.90
2018-06-21T02:25:02.634Z,4.60
2018-06-21T02:27:31.037Z,4.63
2018-06-21T02:29:59.464Z,4.73
2018-06-21T02:32:27.853Z,4.07
2018-06-21T02:34:56.252Z,4.20
2018-06-21T02:37:24.673Z,4.73
2018-06-21T02:39:53.058Z,5.00
2018-06-21T02:42:21.434Z,4.67
2018-06-21T02:44:49.817Z,4.20
2018-06-21T02:47:18.172Z,4.93
2018-06-21T02:49:46.556Z,5.73
2018-06-21T02:52:14.958Z,4.70
2018-06-21T02:54:43.317Z,4.20
2018-06-21T02:57:11.736Z,4.43
2018-06-21T02:59:40.104Z,4.80
2018-06-21T03:02:08.483Z,4.40
2018-06-21T03:04:36.889Z,4.50
2018-06-21T03:07:05.292Z,4.77
2018-06-21T03:09:33.856Z,4.70
2018-06-21T03:12:02.268Z,4.43
2018-06-21T03:14:30.628Z,4.40
2018-06-21T03:16:59.052Z,4.87
2018-06-21T03:19:27.421Z,5.30
2018-06-21T03:21:55.855Z,8.67
2018-06-21T03:24:24.221Z,5.07
2018-06-21T03:26:52.617Z,5.50
2018-06-21T03:29:21.049Z,6.70
2018-06-21T03:31:49.431Z,6.47
2018-06-21T03:34:17.793Z,5.50
2018-06-21T03:36:46.132Z,5.90
2018-06-21T03:39:14.511Z,5.83
2018-06-21T03:41:42.880Z,5.33
2018-06-21T03:44:11.268Z,7.50
2018-06-21T03:46:39.664Z,7.30
2018-06-21T03:49:08.077Z,7.10
2018-06-21T03:51:36.939Z,8.50
2018-06-21T03:54:05.320Z,7.50
2018-06-21T03:56:33.880Z,7.33
2018-06-21T03:59:02.300Z,7.07
2018-06-21T04:01:30.705Z,7.37
2018-06-21T04:03:59.115Z,7.33
2018-06-21T04:06:27.494Z,8.00
2018-06-21T04:08:55.881Z,7.07
2018-06-21T04:11:24.308Z,7.20
2018-06-21T04:13:52.675Z,7.07
2018-06-21T04:16:22.004Z,6.60
2018-06-21T04:18:50.388Z,6.70
2018-06-21T04:21:18.812Z,6.87
2018-06-21T04:23:47.210Z,6.93
2018-06-21T04:26:15.569Z,7.93
2018-06-21T04:28:43.976Z,7.70
2018-06-21T04:31:12.376Z,7.50
2018-06-21T04:33:40.764Z,6.70
2018-06-21T04:36:09.181Z,7.77
2018-06-21T04:38:37.819Z,7.50
2018-06-21T04:41:06.391Z,6.90
2018-06-21T04:43:34.776Z,7.37
2018-06-21T04:46:03.134Z,7.90
2018-06-21T04:48:31.551Z,8.03
2018-06-21T04:50:59.948Z,8.10
2018-06-21T04:53:28.360Z,8.13
2018-06-21T04:55:56.739Z,7.53
2018-06-21T04:58:25.159Z,8.13
2018-06-21T05:00:53.655Z,8.30
2018-06-21T05:03:22.036Z,8.30
2018-06-21T05:05:50.514Z,7.80
2018-06-21T05:08:18.852Z,8.83
2018-06-21T05:10:47.290Z,8.60
2018-06-21T05:13:15.640Z,9.23
2018-06-21T05:15:44.019Z,8.90
2018-06-21T05:18:12.495Z,10.80
2018-06-21T05:20:40.901Z,12.40
2018-06-21T05:23:09.346Z,11.57
2018-06-21T05:25:37.876Z,12.17
2018-06-21T05:28:06.327Z,13.37
2018-06-21T05:30:34.688Z,14.00
2018-06-21T05:33:03.108Z,14.67
2018-06-21T05:35:31.694Z,17.20
2018-06-21T05:38:00.139Z,17.30
2018-06-21T05:40:33.022Z,20.07
2018-06-21T05:43:02.348Z,18.23
2018-06-21T05:45:30.740Z,19.30
2018-06-21T05:48:00.688Z,19.60
2018-06-21T05:50:30.218Z,20.17
2018-06-21T05:52:59.224Z,20.30
2018-06-21T05:55:28.200Z,21.47
2018-06-21T05:57:57.299Z,21.23
2018-06-21T06:00:25.708Z,22.30
2018-06-21T06:02:54.124Z,21.60
2018-06-21T06:05:22.508Z,21.43
2018-06-21T06:07:51.123Z,21.43
2018-06-21T06:10:19.709Z,20.73
2018-06-21T06:12:48.094Z,23.43
2018-06-21T06:15:16.461Z,23.00
2018-06-21T06:17:44.866Z,23.27
2018-06-21T06:20:13.269Z,22.80
2018-06-21T06:22:41.713Z,22.10
2018-06-21T06:25:10.120Z,21.10
2018-06-21T06:27:38.548Z,20.90
2018-06-21T06:30:07.621Z,19.73
2018-06-21T06:32:36.028Z,19.73
2018-06-21T06:35:04.459Z,21.93
2018-06-21T06:37:32.933Z,19.93
2018-06-21T06:40:01.363Z,19.23
2018-06-21T06:42:29.818Z,19.07
2018-06-21T06:44:58.295Z,18.43
2018-06-21T06:47:27.333Z,19.57
2018-06-21T06:49:56.177Z,18.00
2018-06-21T06:52:24.613Z,17.37
2018-06-21T06:54:53.112Z,17.30
2018-06-21T06:57:21.568Z,16.63
2018-06-21T06:59:49.953Z,15.53
2018-06-21T07:02:18.364Z,16.60
2018-06-21T07:04:46.773Z,17.43
2018-06-21T07:07:15.198Z,16.50
2018-06-21T07:09:43.630Z,15.87
2018-06-21T07:12:12.022Z,16.07
2018-06-21T07:14:40.654Z,15.30
2018-06-21T07:17:09.095Z,17.23
2018-06-21T07:19:37.474Z,13.90
2018-06-21T07:22:05.905Z,15.93
2018-06-21T07:24:34.257Z,14.50
2018-06-21T07:27:02.714Z,14.70
2018-06-21T07:29:31.096Z,13.33
2018-06-21T07:31:59.528Z,12.50
2018-06-21T07:34:27.897Z,12.67
2018-06-21T07:36:56.280Z,12.27
2018-06-21T07:39:24.675Z,13.30
2018-06-21T07:41:53.055Z,13.30
2018-06-21T07:44:21.440Z,11.90
2018-06-21T07:46:49.898Z,11.83
2018-06-21T07:49:18.273Z,10.60
2018-06-21T07:51:46.650Z,7.67
2018-06-21T07:54:15.151Z,8.23
2018-06-21T07:56:43.679Z,8.03
2018-06-21T07:59:12.121Z,6.90
2018-06-21T08:01:40.458Z,7.37
2018-06-21T08:04:08.976Z,6.97
2018-06-21T08:06:37.522Z,6.43
2018-06-21T08:09:09.494Z,6.10
2018-06-21T08:11:39.837Z,5.93
2018-06-21T08:14:08.614Z,5.90
2018-06-21T08:16:37.405Z,4.53
2018-06-21T08:19:06.055Z,5.50
2018-06-21T08:21:34.475Z,4.97
2018-06-21T08:24:02.885Z,4.17
2018-06-21T08:26:31.269Z,3.60
2018-06-21T08:28:59.691Z,3.20
2018-06-21T08:31:28.091Z,3.23
2018-06-21T08:33:56.670Z,3.23
2018-06-21T08:36:25.160Z,3.40
2018-06-21T08:38:54.346Z,3.50
2018-06-21T08:41:22.856Z,4.13
2018-06-21T08:43:51.255Z,3.90
2018-06-21T08:46:19.625Z,3.77
2018-06-21T08:48:48.013Z,3.60
2018-06-21T08:51:16.378Z,3.27
2018-06-21T08:53:45.056Z,3.73
2018-06-21T08:56:13.420Z,3.27
2018-06-21T08:58:41.810Z,3.47
2018-06-21T09:01:10.199Z,3.30
2018-06-21T09:03:38.982Z,3.50
2018-06-21T09:06:07.368Z,2.90
2018-06-21T09:08:35.736Z,3.00
2018-06-21T09:11:04.175Z,3.87
2018-06-21T09:13:35.247Z,3.43
2018-06-21T09:16:04.520Z,3.37
2018-06-21T09:18:32.900Z,3.17
2018-06-21T09:21:01.778Z,2.57
2018-06-21T09:23:30.145Z,3.77
2018-06-21T09:25:58.510Z,3.00
2018-06-21T09:28:26.928Z,2.70
2018-06-21T09:30:55.302Z,2.70
2018-06-21T09:33:23.741Z,2.60
2018-06-21T09:35:52.152Z,3.63
2018-06-21T09:38:25.820Z,2.10
2018-06-21T09:40:59.683Z,2.23
2018-06-21T09:43:33.232Z,2.00
2018-06-21T09:46:07.558Z,2.50
2018-06-21T09:48:36.441Z,2.00
2018-06-21T09:51:04.861Z,2.23
2018-06-21T10:47:51.811Z,2.00
2018-06-21T10:50:20.296Z,2.37
2018-06-21T10:52:48.787Z,2.20
2018-06-21T10:55:17.200Z,2.63
2018-06-21T10:57:45.590Z,2.70
2018-06-21T11:00:14.012Z,2.50
2018-06-21T11:02:42.506Z,2.73
2018-06-21T11:05:10.943Z,2.13
2018-06-21T11:07:39.440Z,2.03
2018-06-21T11:10:07.872Z,2.20
2018-06-21T11:12:36.257Z,1.70
2018-06-21T11:15:04.754Z,1.80
2018-06-21T11:17:33.168Z,1.70
2018-06-21T11:20:02.212Z,1.70
2018-06-21T11:22:30.617Z,1.90
2018-06-21T11:24:58.973Z,1.27
2018-06-21T11:27:27.822Z,1.40
2018-06-21T11:29:56.217Z,1.80
2018-06-21T11:32:24.848Z,1.70
2018-06-21T11:34:53.245Z,2.10
2018-06-21T11:37:21.693Z,1.77
2018-06-21T11:39:50.259Z,1.60
2018-06-21T11:42:18.721Z,1.77
2018-06-21T11:44:48.080Z,1.50
2018-06-21T11:47:17.395Z,1.80
2018-06-21T11:49:46.028Z,1.40
2018-06-21T11:52:14.429Z,1.73
2018-06-21T11:54:42.816Z,1.83
2018-06-21T11:57:11.209Z,2.40
2018-06-21T11:59:39.635Z,2.30
2018-06-21T12:02:08.074Z,1.60
2018-06-21T12:04:36.503Z,1.70
2018-06-21T12:07:05.015Z,1.93
2018-06-21T12:09:33.436Z,1.70
2018-06-21T12:12:01.840Z,2.07
2018-06-21T12:14:31.162Z,1.67
2018-06-21T12:16:59.568Z,2.03
2018-06-21T12:19:27.957Z,1.80
2018-06-21T12:21:56.380Z,2.00
2018-06-21T12:24:24.840Z,1.93
2018-06-21T12:26:53.290Z,1.97
2018-06-21T12:29:21.688Z,1.70
2018-06-21T12:31:50.192Z,2.13
2018-06-21T12:34:18.594Z,1.77
2018-06-21T12:36:47.170Z,1.67
2018-06-21T12:39:15.614Z,1.60
2018-06-21T12:41:43.969Z,1.67
2018-06-21T12:44:12.382Z,1.53
2018-06-21T12:46:40.778Z,1.87
2018-06-21T12:49:09.220Z,1.80
2018-06-21T12:51:37.654Z,1.70
2018-06-21T12:54:06.062Z,1.70
2018-06-21T12:56:34.703Z,1.87
2018-06-21T12:59:03.078Z,2.70
2018-06-21T13:01:32.329Z,1.70
2018-06-21T13:04:00.908Z,2.23
2018-06-21T13:06:29.297Z,1.80
2018-06-21T13:09:08.953Z,1.70
2018-06-21T13:12:52.822Z,1.70
2018-06-21T13:15:21.248Z,1.70
2018-06-21T13:17:49.724Z,2.27
2018-06-21T13:20:18.121Z,1.93
2018-06-21T13:22:46.638Z,2.00
2018-06-21T13:25:15.075Z,1.97
2018-06-21T13:27:43.488Z,1.80
2018-06-21T13:30:11.865Z,2.07
2018-06-21T13:32:40.304Z,1.70
2018-06-21T13:35:08.723Z,1.73
2018-06-21T13:37:37.186Z,1.90
2018-06-21T13:40:05.663Z,1.70
2018-06-21T13:42:34.066Z,2.30
2018-06-21T13:45:02.489Z,2.03
2018-06-21T13:47:30.880Z,2.00
2018-06-21T13:49:59.951Z,1.60
2018-06-21T13:52:28.333Z,1.80
2018-06-21T13:54:56.828Z,1.70
2018-06-21T13:57:25.261Z,2.00
2018-06-21T13:59:53.849Z,1.80
2018-06-21T14:02:22.229Z,1.70
2018-06-21T14:04:50.644Z,1.80
2018-06-21T14:07:19.177Z,1.80
2018-06-21T14:09:47.580Z,1.80
2018-06-21T14:12:16.029Z,1.57
2018-06-21T14:14:44.501Z,2.10
2018-06-21T14:17:12.844Z,1.50
2018-06-21T14:19:41.224Z,1.93
2018-06-21T14:22:09.666Z,1.50
2018-06-21T14:24:38.109Z,2.40
2018-06-21T14:27:06.505Z,1.50
2018-06-21T14:29:34.947Z,1.70
2018-06-21T14:32:03.363Z,1.80
2018-06-21T14:34:31.800Z,2.37
2018-06-21T14:37:00.336Z,2.43
2018-06-21T14:39:28.769Z,1.83
2018-06-21T14:41:57.441Z,1.87
2018-06-21T14:44:25.911Z,2.10
2018-06-21T14:46:54.296Z,1.60
2018-06-21T14:49:22.838Z,2.10
2018-06-21T14:51:51.261Z,2.17
2018-06-21T14:54:20.145Z,1.70
2018-06-21T14:56:48.909Z,1.80
2018-06-21T14:59:17.428Z,1.97
2018-06-21T15:01:46.800Z,2.07
2018-06-21T15:04:15.873Z,2.37
2018-06-21T15:06:44.277Z,1.90
2018-06-21T15:09:13.682Z,2.40
2018-06-21T15:11:42.192Z,1.70
2018-06-21T15:14:10.642Z,1.80
2018-06-21T15:16:39.033Z,2.10
2018-06-21T15:19:08.026Z,1.93
2018-06-21T15:21:37.105Z,1.70
2018-06-21T15:24:05.550Z,1.70
2018-06-21T15:26:33.983Z,2.37
2018-06-21T15:29:02.437Z,1.90
2018-06-21T15:31:31.857Z,1.87
2018-06-21T15:34:00.452Z,2.03
2018-06-21T15:36:28.883Z,2.07
2018-06-21T15:38:58.513Z,2.20
2018-06-21T15:41:28.294Z,2.00
2018-06-21T15:43:57.056Z,2.10
2018-06-21T15:46:25.490Z,2.17
2018-06-21T15:48:53.925Z,2.23
2018-06-21T15:51:22.865Z,1.60
2018-06-21T15:53:51.326Z,1.90
2018-06-21T15:56:19.742Z,1.40
2018-06-21T15:58:48.626Z,2.17
2018-06-21T16:01:17.024Z,2.17
2018-06-21T16:03:45.389Z,2.23
2018-06-21T16:06:13.769Z,2.10
2018-06-21T16:08:42.254Z,1.60
2018-06-21T16:11:10.640Z,1.70
2018-06-21T16:13:39.061Z,1.80
2018-06-21T16:16:07.569Z,1.67
2018-06-21T16:18:35.960Z,1.80
2018-06-21T16:21:04.382Z,1.60
2018-06-21T16:23:33.043Z,1.80
2018-06-21T16:26:01.441Z,1.97
2018-06-21T16:28:29.872Z,2.00
2018-06-21T16:30:58.456Z,1.50
2018-06-21T16:33:26.873Z,2.00
2018-06-21T16:35:55.269Z,1.73
2018-06-21T16:38:23.644Z,2.10
2018-06-21T16:40:52.074Z,1.77
2018-06-21T16:43:20.476Z,2.20
2018-06-21T16:45:48.901Z,2.43
2018-06-21T16:48:17.326Z,1.83
2018-06-21T16:50:45.795Z,1.57
2018-06-21T16:53:14.260Z,1.70
2018-06-21T16:55:42.894Z,2.30
2018-06-21T16:58:11.295Z,1.60
2018-06-21T17:00:39.700Z,1.97
2018-06-21T17:03:08.112Z,1.30
2018-06-21T17:05:36.488Z,1.50
2018-06-21T17:08:04.928Z,1.87
2018-06-21T17:10:33.374Z,1.73
2018-06-21T17:13:01.899Z,2.70
2018-06-21T17:15:30.360Z,1.90
2018-06-21T17:17:58.818Z,1.53
2018-06-21T17:20:27.249Z,1.67
2018-06-21T17:22:55.680Z,1.50
2018-06-21T17:25:24.101Z,1.47
2018-06-21T17:27:52.515Z,1.63
2018-06-21T17:30:21.041Z,1.87
2018-06-21T17:32:49.513Z,3.90
2018-06-21T17:35:17.976Z,1.80
2018-06-21T17:37:46.394Z,1.77
2018-06-21T17:40:14.802Z,1.87
2018-06-21T17:42:43.244Z,1.63
2018-06-21T17:45:11.697Z,2.00
2018-06-21T17:47:40.113Z,1.63
2018-06-21T17:50:08.550Z,1.90
2018-06-21T17:52:36.977Z,1.67
2018-06-21T17:55:05.380Z,1.80
2018-06-21T17:57:33.808Z,1.97
2018-06-21T18:00:02.428Z,2.00
2018-06-21T18:02:30.834Z,1.97
2018-06-21T18:04:59.274Z,2.30
2018-06-21T18:07:27.830Z,2.50
2018-06-21T18:09:56.251Z,2.30
2018-06-21T18:12:24.655Z,2.00
2018-06-21T18:14:53.092Z,3.20
2018-06-21T18:17:21.500Z,1.87
2018-06-21T18:19:50.178Z,1.90
2018-06-21T18:22:18.616Z,1.60
2018-06-21T18:24:47.085Z,2.17
2018-06-21T18:27:15.544Z,1.57
2018-06-21T18:29:44.048Z,2.00
2018-06-21T18:32:12.498Z,2.17
2018-06-21T18:34:40.889Z,1.77
2018-06-21T18:37:09.330Z,1.90
2018-06-21T18:39:37.808Z,1.50
2018-06-21T18:42:06.232Z,2.23
2018-06-21T18:44:34.697Z,1.70
2018-06-21T18:47:03.332Z,1.87
2018-06-21T18:49:31.835Z,1.60
2018-06-21T18:52:00.317Z,1.37
2018-06-21T18:54:28.895Z,1.73
2018-06-21T18:56:57.402Z,1.40
2018-06-21T18:59:25.888Z,1.67
2018-06-21T19:01:54.821Z,1.60
2018-06-21T19:04:23.367Z,1.90
2018-06-21T19:06:57.109Z,1.60
2018-06-21T19:09:30.949Z,2.37
2018-06-21T19:12:03.804Z,1.87
2018-06-21T19:14:32.363Z,1.77
2018-06-21T19:17:00.854Z,2.23
2018-06-21T19:19:29.281Z,1.67
2018-06-21T19:21:57.735Z,1.60
2018-06-21T19:24:26.795Z,1.37
2018-06-21T19:26:55.252Z,2.50
2018-06-21T19:29:23.721Z,1.70
2018-06-21T19:31:52.184Z,1.60
2018-06-21T19:34:20.630Z,1.60
2018-06-21T19:36:49.148Z,1.90
2018-06-21T19:39:17.578Z,1.50
2018-06-21T19:41:46.034Z,2.17
2018-06-21T19:44:14.438Z,2.83
2018-06-21T19:46:42.933Z,2.20
2018-06-21T19:49:11.397Z,2.97
2018-06-21T19:51:39.864Z,2.70
2018-06-21T19:54:08.310Z,2.10
2018-06-21T19:56:36.758Z,2.93
2018-06-21T19:59:05.308Z,2.17
2018-06-21T20:01:33.728Z,2.10
2018-06-21T20:04:02.188Z,2.80
2018-06-21T20:06:30.627Z,2.00
2018-06-21T20:08:59.064Z,2.20
2018-06-21T20:11:32.849Z,2.80
2018-06-21T20:14:01.273Z,2.17
2018-06-21T20:16:29.753Z,2.20
2018-06-21T20:19:03.108Z,2.00
2018-06-21T20:21:31.565Z,2.40
2018-06-21T20:24:00.016Z,5.40
2018-06-21T20:26:28.543Z,3.40
2018-06-21T20:28:57.338Z,2.77
2018-06-21T20:31:25.885Z,2.63
2018-06-21T20:33:54.343Z,2.90
2018-06-21T20:36:28.184Z,2.43
2018-06-21T20:38:56.781Z,3.20
2018-06-21T20:41:25.201Z,2.80
2018-06-21T20:43:53.629Z,2.20
2018-06-21T20:46:22.111Z,1.83
2018-06-21T20:48:50.542Z,2.07
2018-06-21T20:51:18.991Z,1.90
2018-06-21T20:53:47.458Z,1.93
2018-06-21T20:56:16.510Z,3.30
2018-06-21T20:58:44.937Z,2.73
2018-06-21T21:01:13.351Z,3.40
2018-06-21T21:03:41.870Z,2.30
2018-06-21T21:06:11.317Z,5.80
2018-06-21T21:08:39.760Z,2.37
2018-06-21T21:11:08.312Z,2.27
2018-06-21T21:13:36.691Z,2.57
2018-06-21T21:16:05.200Z,2.17
2018-06-21T21:18:34.605Z,2.53
2018-06-21T21:21:03.038Z,3.00
2018-06-21T21:23:31.452Z,2.47
2018-06-21T21:25:59.845Z,2.40
2018-06-21T21:28:28.238Z,2.53
2018-06-21T21:30:56.608Z,6.43
2018-06-21T21:33:25.516Z,2.43
2018-06-21T21:35:53.877Z,2.90
2018-06-21T21:38:22.288Z,2.40
2018-06-21T21:40:50.676Z,2.13
2018-06-21T21:43:19.070Z,5.20
2018-06-21T21:45:47.564Z,2.60
2018-06-21T21:48:15.934Z,2.47
2018-06-21T21:50:44.288Z,2.17
2018-06-21T21:53:12.700Z,2.10
2018-06-21T21:55:41.083Z,2.80
2018-06-21T21:58:09.657Z,2.30
2018-06-21T22:00:50.365Z,2.80
2018-06-21T22:03:18.807Z,2.23
2018-06-21T22:05:47.206Z,2.23
2018-06-21T22:08:15.629Z,2.70
2018-06-21T22:10:45.105Z,2.83
2018-06-21T22:13:13.818Z,1.90
2018-06-21T22:15:42.518Z,2.43
2018-06-21T22:18:11.012Z,2.30
2018-06-21T22:20:39.569Z,3.00
2018-06-21T22:23:08.032Z,2.40
2018-06-21T22:25:36.476Z,1.97
2018-06-21T22:28:04.875Z,2.40
2018-06-21T22:30:33.328Z,2.37
2018-06-21T22:33:01.715Z,2.47
2018-06-21T22:35:31.142Z,2.67
2018-06-21T22:37:59.596Z,2.97
2018-06-21T22:40:28.011Z,2.00
2018-06-21T22:42:56.424Z,2.70
2018-06-21T22:45:24.902Z,2.63
2018-06-21T22:47:53.327Z,3.17
2018-06-21T22:50:21.676Z,2.40
2018-06-21T22:52:50.112Z,1.90
2018-06-21T22:55:18.521Z,2.57
2018-06-21T22:57:46.981Z,2.47
2018-06-21T23:00:16.992Z,2.30
2018-06-21T23:02:45.581Z,2.43
2018-06-21T23:05:14.035Z,2.50
2018-06-21T23:07:42.472Z,2.23
2018-06-21T23:10:11.017Z,2.27
2018-06-21T23:12:39.437Z,2.40
2018-06-21T23:15:07.804Z,2.20
2018-06-21T23:17:36.283Z,2.20
2018-06-21T23:20:04.714Z,2.90
2018-06-21T23:22:33.151Z,2.23
2018-06-21T23:25:01.654Z,3.00
2018-06-21T23:27:30.033Z,2.67
2018-06-21T23:29:58.417Z,2.57
2018-06-21T23:32:26.770Z,2.00
2018-06-21T23:34:55.192Z,2.30
2018-06-21T23:37:23.596Z,2.90
2018-06-21T23:39:51.992Z,2.53
2018-06-21T23:42:20.605Z,2.13
2018-06-21T23:44:49.012Z,3.00
2018-06-21T23:47:17.380Z,2.47
2018-06-21T23:49:45.769Z,3.00
2018-06-21T23:52:14.405Z,2.43
2018-06-21T23:54:43.739Z,2.70
2018-06-21T23:57:12.177Z,2.40
2018-06-21T23:59:41.479Z,2.10
